Time;durP1;ratioP1;P1;durP2;ratioP2;P2;SDS_P1;SDS_P2;PMS_P1;PMS_P2;Temp;Humidity;BMP_temperature;BMP_pressure;BME280_temperature;BME280_humidity;BME280_pressure;Samples;Min_cycle;Max_cycle;Signal;HPM_P1;HPM_P2
2021/11/26 00:00:19;;;;;;;44.97;17.33;;;;;;;;;;5021363;28;20948;-87
2021/11/26 00:03:24;;;;;;;36.97;15.27;;;;;;;;;;4998567;28;20949;-87
2021/11/26 00:06:28;;;;;;;42.87;16.57;;;;;;;;;;5010168;28;20591;-86
2021/11/26 00:09:32;;;;;;;39.97;16.33;;;;;;;;;;5021088;28;20556;-87
2021/11/26 00:12:37;;;;;;;46.27;18.30;;;;;;;;;;4998559;28;20658;-87
2021/11/26 00:15:41;;;;;;;45.40;18.80;;;;;;;;;;5021345;28;20544;-86
2021/11/26 00:18:55;;;;;;;41.97;17.90;;;;;;;;;;5020980;28;20560;-87
2021/11/26 00:21:59;;;;;;;43.07;18.13;;;;;;;;;;4998735;28;20964;-87
2021/11/26 00:25:03;;;;;;;47.07;18.07;;;;;;;;;;4998521;28;20553;-86
2021/11/26 00:28:07;;;;;;;45.10;18.67;;;;;;;;;;4998756;28;20540;-86
2021/11/26 00:31:12;;;;;;;45.47;18.63;;;;;;;;;;5020790;28;20623;-87
2021/11/26 00:34:16;;;;;;;52.27;19.73;;;;;;;;;;4998333;28;20651;-87
2021/11/26 00:37:22;;;;;;;44.97;18.57;;;;;;;;;;4998737;28;20552;-87
2021/11/26 00:40:26;;;;;;;50.37;19.37;;;;;;;;;;5009492;28;20595;-86
2021/11/26 00:43:30;;;;;;;48.87;19.60;;;;;;;;;;4998667;28;20544;-87
2021/11/26 00:46:34;;;;;;;46.30;18.50;;;;;;;;;;5010119;28;20599;-87
2021/11/26 00:49:40;;;;;;;53.40;20.43;;;;;;;;;;5013014;28;20607;-87
2021/11/26 00:52:45;;;;;;;54.93;19.83;;;;;;;;;;5013112;28;20642;-87
2021/11/26 00:55:48;;;;;;;49.13;20.10;;;;;;;;;;5012916;28;20552;-86
2021/11/26 00:58:53;;;;;;;55.90;20.63;;;;;;;;;;5002058;28;20535;-86
2021/11/26 01:01:57;;;;;;;59.37;20.33;;;;;;;;;;5024244;28;20619;-87
2021/11/26 01:05:02;;;;;;;55.23;21.23;;;;;;;;;;5012977;28;20556;-87
2021/11/26 01:08:06;;;;;;;57.27;19.33;;;;;;;;;;5002189;28;20539;-86
2021/11/26 01:11:10;;;;;;;56.43;18.87;;;;;;;;;;5001589;28;20639;-87
2021/11/26 01:14:15;;;;;;;56.53;18.53;;;;;;;;;;5001567;28;20654;-87
2021/11/26 01:17:19;;;;;;;41.43;18.40;;;;;;;;;;5023968;28;20552;-86
2021/11/26 01:20:27;;;;;;;42.07;18.83;;;;;;;;;;5024005;28;21076;-87
2021/11/26 01:23:31;;;;;;;52.47;18.70;;;;;;;;;;5001552;28;20544;-87
2021/11/26 01:26:35;;;;;;;50.87;18.00;;;;;;;;;;5001793;28;20873;-87
2021/11/26 01:29:39;;;;;;;50.80;18.97;;;;;;;;;;5012897;28;20932;-87
2021/11/26 01:32:43;;;;;;;51.33;18.07;;;;;;;;;;5000904;28;20658;-87
2021/11/26 01:35:54;;;;;;;51.13;17.90;;;;;;;;;;5012204;28;20941;-86
2021/11/26 01:38:58;;;;;;;45.23;17.77;;;;;;;;;;5012428;28;20898;-86
2021/11/26 01:42:02;;;;;;;40.63;16.50;;;;;;;;;;5023318;28;20634;-87
2021/11/26 01:45:07;;;;;;;53.20;18.40;;;;;;;;;;5001239;28;20540;-87
2021/11/26 01:48:11;;;;;;;50.00;16.13;;;;;;;;;;5012066;28;21123;-87
2021/11/26 01:51:16;;;;;;;41.10;15.53;;;;;;;;;;5000567;28;20619;-86
2021/11/26 01:54:20;;;;;;;43.90;16.70;;;;;;;;;;5034492;28;21183;-87
2021/11/26 01:57:24;;;;;;;41.87;16.73;;;;;;;;;;5001327;28;20544;-87
2021/11/26 02:00:33;;;;;;;40.80;15.23;;;;;;;;;;5011913;28;20890;-87
2021/11/26 02:03:37;;;;;;;44.07;16.10;;;;;;;;;;5000993;28;21091;-87
2021/11/26 02:06:42;;;;;;;48.27;16.60;;;;;;;;;;5000951;28;20536;-87
2021/11/26 02:09:46;;;;;;;41.43;15.50;;;;;;;;;;5000681;28;20889;-87
2021/11/26 02:12:50;;;;;;;39.63;14.80;;;;;;;;;;5011704;28;20647;-86
2021/11/26 02:15:59;;;;;;;37.23;15.50;;;;;;;;;;5023040;28;20544;-87
2021/11/26 02:19:03;;;;;;;39.33;15.40;;;;;;;;;;5011653;28;20544;-87
2021/11/26 02:22:07;;;;;;;38.17;15.27;;;;;;;;;;5011479;28;20618;-87
2021/11/26 02:25:12;;;;;;;34.67;14.53;;;;;;;;;;4999977;28;20595;-87
2021/11/26 02:28:18;;;;;;;37.13;14.23;;;;;;;;;;5022545;28;20603;-87
2021/11/26 02:31:22;;;;;;;45.20;14.73;;;;;;;;;;5011151;28;20619;-87
2021/11/26 02:34:26;;;;;;;37.30;15.93;;;;;;;;;;5022586;28;21155;-87
2021/11/26 02:37:30;;;;;;;45.23;15.93;;;;;;;;;;5011712;28;20611;-87
2021/11/26 02:40:38;;;;;;;40.40;14.63;;;;;;;;;;5011081;28;20552;-86
2021/11/26 02:43:42;;;;;;;44.77;13.70;;;;;;;;;;5000647;28;20541;-87
2021/11/26 02:46:46;;;;;;;43.27;15.43;;;;;;;;;;5000088;28;20552;-87
2021/11/26 02:49:50;;;;;;;41.50;14.80;;;;;;;;;;4999849;28;20543;-87
2021/11/26 02:52:57;;;;;;;35.63;15.20;;;;;;;;;;5033308;28;20544;-87
2021/11/26 02:56:01;;;;;;;37.07;14.83;;;;;;;;;;5010773;28;20544;-87
2021/11/26 02:59:05;;;;;;;42.50;15.13;;;;;;;;;;4999482;28;20548;-87
2021/11/26 03:02:09;;;;;;;34.67;13.03;;;;;;;;;;4999372;28;20972;-88
2021/11/26 03:05:14;;;;;;;36.00;13.40;;;;;;;;;;4999510;28;20540;-88
2021/11/26 03:08:18;;;;;;;40.23;15.87;;;;;;;;;;5010680;28;20540;-87
2021/11/26 03:11:23;;;;;;;43.43;16.90;;;;;;;;;;4999200;28;20631;-87
2021/11/26 03:14:27;;;;;;;44.40;16.37;;;;;;;;;;4999222;28;20596;-87
2021/11/26 03:17:32;;;;;;;45.33;17.13;;;;;;;;;;5010325;28;20563;-86
2021/11/26 03:20:37;;;;;;;48.33;16.97;;;;;;;;;;5010791;28;21048;-86
2021/11/26 03:23:41;;;;;;;46.17;16.73;;;;;;;;;;4999525;28;20889;-86
2021/11/26 03:26:45;;;;;;;42.20;17.37;;;;;;;;;;4999091;28;20607;-86
2021/11/26 03:29:50;;;;;;;47.73;16.60;;;;;;;;;;5010668;28;20603;-86
2021/11/26 03:32:56;;;;;;;49.03;17.57;;;;;;;;;;4999253;28;20548;-86
2021/11/26 03:36:00;;;;;;;48.37;17.13;;;;;;;;;;5010603;28;20548;-86
2021/11/26 03:39:04;;;;;;;44.40;17.33;;;;;;;;;;4999124;28;21083;-87
2021/11/26 03:42:08;;;;;;;52.67;17.40;;;;;;;;;;4985682;23;20689;-88
2021/11/26 03:45:15;;;;;;;50.40;17.70;;;;;;;;;;4964326;28;21090;-88
2021/11/26 03:48:19;;;;;;;47.83;17.20;;;;;;;;;;4964362;28;20680;-88
2021/11/26 03:51:23;;;;;;;44.17;16.63;;;;;;;;;;4970422;28;20625;-88
2021/11/26 03:54:27;;;;;;;44.33;16.77;;;;;;;;;;4983412;28;20931;-88
2021/11/26 03:57:31;;;;;;;43.17;15.17;;;;;;;;;;4983574;28;20557;-88
2021/11/26 04:00:35;;;;;;;47.13;17.33;;;;;;;;;;4994894;28;21074;-88
2021/11/26 04:03:39;;;;;;;51.50;17.80;;;;;;;;;;4994457;28;20541;-87
2021/11/26 04:06:44;;;;;;;51.27;16.97;;;;;;;;;;4983918;28;20542;-88
2021/11/26 04:09:48;;;;;;;48.93;18.00;;;;;;;;;;4984213;28;20553;-88
2021/11/26 04:12:52;;;;;;;53.13;17.50;;;;;;;;;;4983342;28;20613;-88
2021/11/26 04:16:02;;;;;;;41.97;16.10;;;;;;;;;;4983601;28;20527;-88
2021/11/26 04:19:07;;;;;;;55.43;17.90;;;;;;;;;;4993990;28;20605;-88
2021/11/26 04:22:11;;;;;;;52.57;17.43;;;;;;;;;;4985149;28;21169;-88
2021/11/26 04:25:17;;;;;;;57.80;20.40;;;;;;;;;;4987025;28;20546;-88
2021/11/26 04:28:21;;;;;;;55.03;18.93;;;;;;;;;;4989474;28;20887;-88
2021/11/26 04:31:27;;;;;;;62.83;18.00;;;;;;;;;;4997892;28;20644;-87
2021/11/26 04:34:32;;;;;;;59.33;19.53;;;;;;;;;;5004429;28;20649;-87
2021/11/26 04:37:36;;;;;;;59.30;19.67;;;;;;;;;;4983309;28;20597;-87
2021/11/26 04:40:40;;;;;;;61.27;21.33;;;;;;;;;;4978739;28;20605;-86
2021/11/26 04:43:45;;;;;;;60.23;19.73;;;;;;;;;;4980746;28;20569;-86
2021/11/26 04:46:48;;;;;;;63.37;21.40;;;;;;;;;;4989032;28;20541;-87
2021/11/26 04:49:53;;;;;;;58.50;19.87;;;;;;;;;;4988146;28;20585;-87
2021/11/26 04:52:57;;;;;;;68.60;21.00;;;;;;;;;;5000815;28;21184;-89
2021/11/26 04:56:01;;;;;;;62.70;20.33;;;;;;;;;;5001296;28;20597;-87
2021/11/26 04:59:05;;;;;;;63.37;22.10;;;;;;;;;;4974243;28;20621;-87
2021/11/26 05:02:09;;;;;;;67.23;20.33;;;;;;;;;;4955446;28;20633;-86
2021/11/26 05:05:13;;;;;;;61.30;21.03;;;;;;;;;;4956050;28;20546;-87
2021/11/26 05:08:19;;;;;;;61.83;20.90;;;;;;;;;;4977840;28;20546;-87
2021/11/26 05:11:23;;;;;;;59.77;21.53;;;;;;;;;;4955295;28;20625;-86
2021/11/26 05:14:31;;;;;;;62.63;21.47;;;;;;;;;;4977786;28;20590;-87
2021/11/26 05:17:49;;;;;;;67.57;20.23;;;;;;;;;;4968083;28;20563;-87
2021/11/26 05:21:10;;;;;;;63.97;20.27;;;;;;;;;;4968537;28;20626;-86
2021/11/26 05:24:14;;;;;;;59.73;20.73;;;;;;;;;;4967867;28;20542;-86
2021/11/26 05:27:19;;;;;;;71.97;21.57;;;;;;;;;;4966956;28;20551;-86
2021/11/26 05:30:23;;;;;;;62.47;20.90;;;;;;;;;;4966514;28;20590;-87
2021/11/26 05:33:27;;;;;;;70.30;21.03;;;;;;;;;;4955165;28;20594;-88
2021/11/26 05:36:32;;;;;;;62.20;21.00;;;;;;;;;;4966338;28;20534;-87
2021/11/26 05:39:37;;;;;;;68.03;21.70;;;;;;;;;;4955526;28;20888;-87
2021/11/26 05:42:42;;;;;;;70.27;21.30;;;;;;;;;;4966247;28;20641;-86
2021/11/26 05:45:46;;;;;;;55.50;20.00;;;;;;;;;;4978292;28;20543;-87
2021/11/26 05:48:50;;;;;;;65.87;21.17;;;;;;;;;;4966256;28;20543;-87
2021/11/26 05:51:54;;;;;;;60.73;20.43;;;;;;;;;;4966885;28;20655;-86
2021/11/26 05:54:58;;;;;;;59.43;20.20;;;;;;;;;;4966795;28;20602;-86
2021/11/26 05:58:03;;;;;;;58.07;20.50;;;;;;;;;;4956314;28;20880;-87
2021/11/26 06:01:07;;;;;;;58.97;20.57;;;;;;;;;;4967539;28;20625;-86
2021/11/26 06:04:11;;;;;;;57.43;19.80;;;;;;;;;;4967706;28;20876;-86
2021/11/26 06:07:15;;;;;;;44.53;17.23;;;;;;;;;;4955271;28;20884;-86
2021/11/26 06:10:20;;;;;;;58.23;20.03;;;;;;;;;;4966761;28;20555;-87
2021/11/26 06:13:24;;;;;;;54.23;18.30;;;;;;;;;;4965736;28;20598;-86
2021/11/26 06:16:29;;;;;;;47.13;18.27;;;;;;;;;;4954707;28;20881;-86
2021/11/26 06:19:34;;;;;;;61.70;19.33;;;;;;;;;;4954650;28;20547;-86
2021/11/26 06:22:40;;;;;;;52.87;17.83;;;;;;;;;;4965530;28;20630;-86
2021/11/26 06:25:44;;;;;;;53.77;18.97;;;;;;;;;;4954455;28;20589;-86
2021/11/26 06:28:48;;;;;;;52.27;18.40;;;;;;;;;;4976401;28;20609;-86
2021/11/26 06:31:52;;;;;;;53.73;18.77;;;;;;;;;;4954399;28;20614;-86
2021/11/26 06:34:57;;;;;;;54.03;18.93;;;;;;;;;;4975860;28;20590;-86
2021/11/26 06:38:01;;;;;;;52.00;18.80;;;;;;;;;;4964975;28;20547;-86
2021/11/26 06:41:05;;;;;;;44.10;18.03;;;;;;;;;;4964865;28;20641;-86
2021/11/26 06:44:09;;;;;;;44.97;17.13;;;;;;;;;;4975484;28;20876;-86
2021/11/26 06:47:13;;;;;;;49.70;18.30;;;;;;;;;;4965313;28;21094;-86
2021/11/26 06:50:19;;;;;;;74.30;33.27;;;;;;;;;;4964758;28;20542;-86
2021/11/26 06:53:23;;;;;;;44.07;19.23;;;;;;;;;;4976761;28;20610;-87
2021/11/26 06:56:28;;;;;;;46.63;17.60;;;;;;;;;;4965136;28;20590;-86
2021/11/26 06:59:32;;;;;;;48.30;18.47;;;;;;;;;;4953775;28;20602;-86
2021/11/26 07:02:37;;;;;;;50.57;19.73;;;;;;;;;;4953278;28;20626;-86
2021/11/26 07:05:41;;;;;;;51.40;19.47;;;;;;;;;;4953548;28;20538;-86
2021/11/26 07:08:46;;;;;;;50.00;19.60;;;;;;;;;;4953444;28;20876;-86
2021/11/26 07:11:50;;;;;;;51.33;19.33;;;;;;;;;;4964033;28;20618;-86
2021/11/26 07:14:53;;;;;;;53.13;21.10;;;;;;;;;;4964364;28;20598;-86
2021/11/26 07:17:58;;;;;;;48.53;19.33;;;;;;;;;;4952811;28;20601;-86
2021/11/26 07:21:02;;;;;;;59.87;21.67;;;;;;;;;;4975371;28;20964;-86
2021/11/26 07:24:06;;;;;;;55.47;20.57;;;;;;;;;;4964590;28;20539;-86
2021/11/26 07:27:11;;;;;;;64.30;24.03;;;;;;;;;;4964356;28;21062;-86
2021/11/26 07:30:15;;;;;;;58.27;20.87;;;;;;;;;;4953073;28;20551;-86
2021/11/26 07:33:19;;;;;;;64.27;22.13;;;;;;;;;;4975246;28;20547;-86
2021/11/26 07:36:24;;;;;;;70.97;21.37;;;;;;;;;;4975423;28;20594;-86
2021/11/26 07:39:34;;;;;;;53.43;20.77;;;;;;;;;;4953206;28;20563;-85
2021/11/26 07:42:39;;;;;;;59.37;19.97;;;;;;;;;;4952841;28;21210;-86
2021/11/26 07:45:44;;;;;;;55.77;20.00;;;;;;;;;;4964160;28;20598;-86
2021/11/26 07:48:48;;;;;;;53.17;20.10;;;;;;;;;;4953297;28;20547;-85
2021/11/26 07:51:52;;;;;;;61.43;21.37;;;;;;;;;;4964304;28;21190;-86
2021/11/26 07:54:56;;;;;;;61.80;27.10;;;;;;;;;;4964449;28;21138;-86
2021/11/26 07:58:01;;;;;;;61.27;20.73;;;;;;;;;;4968161;28;20589;-86
2021/11/26 08:01:05;;;;;;;52.10;18.97;;;;;;;;;;4957513;28;20621;-85
2021/11/26 08:04:10;;;;;;;51.40;19.17;;;;;;;;;;4968519;28;20538;-86
2021/11/26 08:07:14;;;;;;;54.87;19.97;;;;;;;;;;4957854;28;21063;-85
2021/11/26 08:10:18;;;;;;;54.50;18.37;;;;;;;;;;4957148;28;20546;-86
2021/11/26 08:13:23;;;;;;;53.27;18.53;;;;;;;;;;4956808;28;20542;-86
2021/11/26 08:16:26;;;;;;;53.30;18.33;;;;;;;;;;4967751;28;20928;-86
2021/11/26 08:19:30;;;;;;;50.93;18.80;;;;;;;;;;4957221;28;20551;-85
2021/11/26 08:22:35;;;;;;;48.73;17.10;;;;;;;;;;4956633;28;21194;-85
2021/11/26 08:25:39;;;;;;;47.90;17.73;;;;;;;;;;4967596;28;20547;-85
2021/11/26 08:28:43;;;;;;;46.63;18.13;;;;;;;;;;4967956;28;20547;-85
2021/11/26 08:31:48;;;;;;;54.47;21.67;;;;;;;;;;4956908;28;20633;-85
2021/11/26 08:34:52;;;;;;;49.40;17.37;;;;;;;;;;4967707;28;20642;-85
2021/11/26 08:37:58;;;;;;;46.57;18.70;;;;;;;;;;4957415;28;20546;-85
2021/11/26 08:41:02;;;;;;;51.53;19.63;;;;;;;;;;4967669;28;20641;-86
2021/11/26 08:44:07;;;;;;;49.50;19.03;;;;;;;;;;4967624;28;20542;-85
2021/11/26 08:47:11;;;;;;;52.47;19.30;;;;;;;;;;4957409;28;20554;-86
2021/11/26 08:50:17;;;;;;;55.30;20.20;;;;;;;;;;4968647;28;20550;-86
2021/11/26 08:53:22;;;;;;;50.07;19.07;;;;;;;;;;4956881;28;20539;-86
2021/11/26 08:56:26;;;;;;;59.53;21.13;;;;;;;;;;4956277;28;20645;-85
2021/11/26 08:59:30;;;;;;;50.57;19.53;;;;;;;;;;4957201;28;20605;-85
2021/11/26 09:02:35;;;;;;;53.70;18.53;;;;;;;;;;4968868;28;20621;-86
2021/11/26 09:05:40;;;;;;;63.53;21.63;;;;;;;;;;4979565;28;20539;-85
2021/11/26 09:08:44;;;;;;;62.00;20.03;;;;;;;;;;4956952;28;20542;-86
2021/11/26 09:11:49;;;;;;;60.97;21.60;;;;;;;;;;4968567;28;20634;-85
2021/11/26 09:14:53;;;;;;;61.00;20.93;;;;;;;;;;4958466;28;21079;-86
2021/11/26 09:17:57;;;;;;;59.10;20.07;;;;;;;;;;4968619;28;20606;-85
2021/11/26 09:21:02;;;;;;;59.77;20.60;;;;;;;;;;4957554;28;20640;-87
2021/11/26 09:24:06;;;;;;;57.63;19.60;;;;;;;;;;4958031;28;20602;-85
2021/11/26 09:27:11;;;;;;;58.23;20.00;;;;;;;;;;4958389;28;20538;-85
2021/11/26 09:30:20;;;;;;;60.40;19.97;;;;;;;;;;4969584;28;20876;-85
2021/11/26 09:33:27;;;;;;;60.93;21.97;;;;;;;;;;4958431;28;20889;-85
2021/11/26 09:36:35;;;;;;;57.60;19.00;;;;;;;;;;4957987;28;20586;-85
2021/11/26 09:39:39;;;;;;;50.47;18.10;;;;;;;;;;4969564;28;20551;-86
2021/11/26 15:29:56;;;;;;;40.03;18.53;;;;;;;;;;3431613;23;20777;-71
2021/11/26 15:33:01;;;;;;;41.00;17.27;;;;;;;;;;5029484;28;20564;-71
2021/11/26 15:36:05;;;;;;;43.43;16.37;;;;;;;;;;5029559;28;20921;-71
2021/11/26 15:39:13;;;;;;;49.60;18.67;;;;;;;;;;5029266;28;20642;-71
2021/11/26 15:42:17;;;;;;;44.57;21.97;;;;;;;;;;5028982;28;21225;-70
2021/11/26 15:45:21;;;;;;;47.13;22.07;;;;;;;;;;5029383;28;20560;-71
2021/11/26 15:48:25;;;;;;;47.77;22.97;;;;;;;;;;5029441;28;20973;-71
2021/11/26 15:51:30;;;;;;;41.90;19.00;;;;;;;;;;5029197;28;21241;-71
2021/11/26 15:54:34;;;;;;;49.43;26.00;;;;;;;;;;5028843;28;20817;-71
2021/11/26 15:57:39;;;;;;;43.73;19.97;;;;;;;;;;5029224;28;21218;-71
2021/11/26 16:00:43;;;;;;;50.63;23.23;;;;;;;;;;5029050;28;20640;-71
2021/11/26 16:03:54;;;;;;;43.50;20.53;;;;;;;;;;5029082;28;21110;-71
2021/11/26 16:06:59;;;;;;;65.17;31.23;;;;;;;;;;5028825;28;20628;-71
2021/11/26 16:10:05;;;;;;;48.13;25.37;;;;;;;;;;5029384;28;20552;-71
2021/11/26 16:13:09;;;;;;;50.03;25.63;;;;;;;;;;5029679;28;20614;-72
2021/11/26 16:16:13;;;;;;;46.60;19.47;;;;;;;;;;5017187;28;20608;-71
2021/11/26 16:19:18;;;;;;;48.67;24.07;;;;;;;;;;5032877;28;20619;-71
2021/11/26 16:22:24;;;;;;;38.83;16.70;;;;;;;;;;5020694;28;20633;-71
2021/11/26 16:25:30;;;;;;;38.23;16.90;;;;;;;;;;5032879;28;20564;-71
2021/11/26 16:28:34;;;;;;;37.67;16.87;;;;;;;;;;5020539;28;20559;-71
2021/11/26 16:34:51;;;;;;;40.07;18.63;;;;;;;;;;5032592;28;20580;-71
2021/11/26 16:37:55;;;;;;;47.37;19.90;;;;;;;;;;5032454;28;21023;-71
2021/11/26 16:40:59;;;;;;;65.90;35.90;;;;;;;;;;5020241;28;20622;-71
2021/11/26 16:44:04;;;;;;;46.00;22.10;;;;;;;;;;5032419;28;20574;-71
2021/11/26 16:47:09;;;;;;;44.47;18.97;;;;;;;;;;5032348;28;20921;-71
2021/11/26 16:50:13;;;;;;;43.77;19.87;;;;;;;;;;5032344;28;20935;-71
2021/11/26 16:53:17;;;;;;;59.17;28.10;;;;;;;;;;5032470;28;20560;-71
2021/11/26 16:56:22;;;;;;;73.50;38.37;;;;;;;;;;5020090;28;20571;-71
2021/11/26 16:59:26;;;;;;;40.30;17.07;;;;;;;;;;5032068;28;20623;-71
2021/11/26 17:02:30;;;;;;;34.03;15.53;;;;;;;;;;5032162;28;21009;-71
2021/11/26 17:05:40;;;;;;;29.63;13.17;;;;;;;;;;5031862;28;20567;-71
2021/11/26 17:08:44;;;;;;;36.30;15.60;;;;;;;;;;5008554;28;20551;-71
2021/11/26 17:11:48;;;;;;;33.97;15.03;;;;;;;;;;5031894;28;20635;-71
2021/11/26 17:14:53;;;;;;;30.93;14.43;;;;;;;;;;5032152;28;20555;-71
2021/11/26 17:17:57;;;;;;;34.77;15.23;;;;;;;;;;5019271;28;20642;-71
2021/11/26 17:21:01;;;;;;;35.70;15.23;;;;;;;;;;5019569;28;20649;-71
2021/11/26 17:24:05;;;;;;;33.30;13.97;;;;;;;;;;5019722;28;20559;-71
2021/11/26 17:27:09;;;;;;;33.70;14.57;;;;;;;;;;5031752;28;21186;-71
2021/11/26 17:30:16;;;;;;;32.37;14.70;;;;;;;;;;5030930;28;20610;-71
2021/11/26 17:33:21;;;;;;;34.23;14.70;;;;;;;;;;5019305;28;20571;-71
2021/11/26 17:36:25;;;;;;;33.23;14.37;;;;;;;;;;5019634;28;20568;-71
2021/11/26 17:39:31;;;;;;;33.77;16.57;;;;;;;;;;5031367;28;20618;-71
2021/11/26 17:42:35;;;;;;;32.37;14.73;;;;;;;;;;5031085;28;20643;-71
2021/11/26 17:45:39;;;;;;;33.43;14.87;;;;;;;;;;5031390;28;20559;-71
2021/11/26 17:48:43;;;;;;;36.43;16.23;;;;;;;;;;5019311;28;20568;-71
2021/11/26 17:51:50;;;;;;;38.87;16.77;;;;;;;;;;5007672;28;20624;-71
2021/11/26 17:54:54;;;;;;;39.67;18.70;;;;;;;;;;5030823;28;20602;-71
2021/11/26 17:58:00;;;;;;;43.87;21.73;;;;;;;;;;5073833;23;20697;-85
2021/11/26 18:01:08;;;;;;;39.30;18.73;;;;;;;;;;5029922;28;20578;-87
2021/11/26 18:04:22;;;;;;;41.27;18.73;;;;;;;;;;5030515;28;20571;-85
2021/11/26 18:07:32;;;;;;;42.63;17.37;;;;;;;;;;5019372;28;20630;-86
2021/11/26 18:10:43;;;;;;;43.80;19.07;;;;;;;;;;5030124;28;20574;-86
2021/11/26 18:13:47;;;;;;;41.60;18.50;;;;;;;;;;5030284;28;20559;-86
2021/11/26 18:16:52;;;;;;;49.70;22.60;;;;;;;;;;5030253;28;20584;-87
2021/11/26 18:20:08;;;;;;;45.47;21.03;;;;;;;;;;5020524;28;21193;-87
2021/11/26 18:23:13;;;;;;;49.20;22.63;;;;;;;;;;5028542;28;20586;-86
2021/11/26 18:26:18;;;;;;;36.73;16.73;;;;;;;;;;5039990;28;20964;-85
2021/11/26 18:29:23;;;;;;;37.93;18.57;;;;;;;;;;5039553;28;20567;-86
2021/11/26 18:32:27;;;;;;;44.50;21.30;;;;;;;;;;5017763;28;20566;-86
2021/11/26 18:35:32;;;;;;;34.93;16.20;;;;;;;;;;5017128;28;20574;-85
2021/11/26 18:38:38;;;;;;;34.50;16.27;;;;;;;;;;5040024;28;20655;-85
2021/11/26 18:41:45;;;;;;;31.53;14.57;;;;;;;;;;5028848;28;20614;-87
2021/11/26 18:44:50;;;;;;;32.97;14.57;;;;;;;;;;5018277;28;20566;-86
2021/11/26 18:47:54;;;;;;;34.77;15.63;;;;;;;;;;5017652;28;21328;-86
2021/11/26 18:50:59;;;;;;;31.00;14.97;;;;;;;;;;5016770;28;20575;-86
2021/11/26 18:54:03;;;;;;;33.20;15.97;;;;;;;;;;5016996;28;20577;-86
2021/11/26 18:57:07;;;;;;;30.20;15.60;;;;;;;;;;5018261;28;21057;-86
2021/11/26 19:00:13;;;;;;;31.73;15.30;;;;;;;;;;5017789;28;20606;-86
2021/11/26 19:03:19;;;;;;;33.50;15.40;;;;;;;;;;5019681;28;20579;-86
2021/11/26 19:06:23;;;;;;;36.50;16.80;;;;;;;;;;5030493;28;20567;-87
2021/11/26 19:09:27;;;;;;;32.13;14.90;;;;;;;;;;5017652;28;20551;-86
2021/11/26 19:12:32;;;;;;;28.77;13.93;;;;;;;;;;5029882;28;20574;-87
2021/11/26 19:15:36;;;;;;;33.77;15.20;;;;;;;;;;5017829;28;20575;-86
2021/11/26 19:18:40;;;;;;;28.73;14.50;;;;;;;;;;5019070;28;21182;-86
2021/11/26 19:21:44;;;;;;;33.33;14.67;;;;;;;;;;5019499;28;21151;-86
2021/11/26 19:24:49;;;;;;;29.37;14.97;;;;;;;;;;5029558;28;20577;-88
2021/11/26 19:27:53;;;;;;;31.10;14.93;;;;;;;;;;5028951;28;20645;-86
2021/11/26 19:30:58;;;;;;;27.03;13.83;;;;;;;;;;5017692;28;20586;-87
2021/11/26 19:34:04;;;;;;;26.33;14.57;;;;;;;;;;5019192;28;20563;-87
2021/11/26 19:37:08;;;;;;;31.17;14.10;;;;;;;;;;5016506;28;20619;-87
2021/11/26 19:40:18;;;;;;;24.80;13.13;;;;;;;;;;5038841;28;20627;-86
2021/11/26 19:43:24;;;;;;;25.17;12.97;;;;;;;;;;5027848;28;20563;-86
2021/11/26 19:46:28;;;;;;;23.77;12.87;;;;;;;;;;5016046;28;20573;-86
2021/11/26 19:49:33;;;;;;;23.53;12.53;;;;;;;;;;5016600;28;20551;-86
2021/11/26 19:52:37;;;;;;;24.90;12.47;;;;;;;;;;5027637;28;20567;-86
2021/11/26 19:55:42;;;;;;;26.00;13.60;;;;;;;;;;5026772;28;20563;-87
2021/11/26 19:58:46;;;;;;;24.67;12.53;;;;;;;;;;5025986;28;20697;-87
2021/11/26 20:01:50;;;;;;;24.87;12.57;;;;;;;;;;5027457;28;21152;-87
2021/11/26 20:04:54;;;;;;;25.37;13.33;;;;;;;;;;5016095;28;20602;-88
2021/11/26 20:07:59;;;;;;;25.00;13.20;;;;;;;;;;5050890;28;20621;-86
2021/11/26 20:11:04;;;;;;;25.50;12.67;;;;;;;;;;5027495;28;20574;-87
2021/11/26 20:18:58;;;;;;;23.17;12.37;;;;;;;;;;5050754;28;20650;-86
2021/11/26 20:22:03;;;;;;;20.93;11.37;;;;;;;;;;5015644;28;20574;-87
2021/11/26 20:25:10;;;;;;;21.67;12.13;;;;;;;;;;5026678;28;20562;-86
2021/11/26 20:28:14;;;;;;;23.60;12.53;;;;;;;;;;5015469;28;20990;-86
2021/11/26 20:31:18;;;;;;;31.33;14.27;;;;;;;;;;5026816;28;20562;-86
2021/11/26 20:34:28;;;;;;;22.80;13.27;;;;;;;;;;5015558;28;21021;-86
2021/11/26 20:37:32;;;;;;;23.43;13.00;;;;;;;;;;5026963;28;20633;-85
2021/11/26 20:40:38;;;;;;;23.03;12.57;;;;;;;;;;5015766;28;20610;-86
2021/11/26 20:43:42;;;;;;;23.90;12.37;;;;;;;;;;5017026;28;20559;-86
2021/11/26 20:46:48;;;;;;;26.87;12.23;;;;;;;;;;5027104;28;20575;-86
2021/11/26 20:49:52;;;;;;;19.53;12.03;;;;;;;;;;5030048;28;20551;-86
2021/11/26 20:53:00;;;;;;;23.03;12.37;;;;;;;;;;5029758;28;20547;-87
2021/11/26 20:56:05;;;;;;;20.30;12.10;;;;;;;;;;5029702;28;21166;-86
2021/11/26 20:59:12;;;;;;;20.27;12.67;;;;;;;;;;5029832;28;20586;-86
2021/11/26 21:02:16;;;;;;;21.20;11.43;;;;;;;;;;5053134;28;20547;-86
2021/11/26 21:05:20;;;;;;;22.03;12.33;;;;;;;;;;5033868;28;20881;-86
2021/11/26 21:08:24;;;;;;;19.67;11.87;;;;;;;;;;5044435;28;20634;-87
2021/11/26 21:11:29;;;;;;;18.20;10.97;;;;;;;;;;5032925;28;20547;-87
2021/11/26 21:14:34;;;;;;;17.80;11.30;;;;;;;;;;5032877;28;20543;-87
2021/11/26 21:17:39;;;;;;;18.63;10.80;;;;;;;;;;5055421;28;20622;-87
2021/11/26 21:20:44;;;;;;;17.77;10.73;;;;;;;;;;5021354;28;20583;-87
2021/11/26 21:23:49;;;;;;;20.33;11.33;;;;;;;;;;5021500;28;20932;-87
2021/11/26 21:26:53;;;;;;;19.60;10.20;;;;;;;;;;5021481;28;20552;-87
2021/11/26 21:29:57;;;;;;;19.37;11.60;;;;;;;;;;5032317;28;20590;-87
2021/11/26 21:33:01;;;;;;;17.57;10.60;;;;;;;;;;5032358;28;21193;-87
2021/11/26 21:36:06;;;;;;;20.67;11.63;;;;;;;;;;5032282;28;20539;-87
2021/11/26 21:39:10;;;;;;;18.20;11.00;;;;;;;;;;5021226;28;20598;-87
2021/11/26 21:42:14;;;;;;;19.93;11.30;;;;;;;;;;5021055;28;20570;-87
2021/11/26 21:45:23;;;;;;;20.23;10.87;;;;;;;;;;5021130;28;20899;-89
2021/11/26 21:48:29;;;;;;;16.10;10.53;;;;;;;;;;5020996;28;21185;-87
2021/11/26 21:51:34;;;;;;;18.50;10.93;;;;;;;;;;5020925;28;20531;-87
2021/11/26 21:54:38;;;;;;;16.67;9.93;;;;;;;;;;5021302;28;20610;-87
2021/11/26 21:57:42;;;;;;;17.33;10.63;;;;;;;;;;5031598;28;20634;-87
2021/11/26 22:00:47;;;;;;;17.03;10.23;;;;;;;;;;5031966;28;21138;-87
2021/11/26 22:03:54;;;;;;;17.43;10.87;;;;;;;;;;5020714;28;20606;-87
2021/11/26 22:06:58;;;;;;;16.90;10.80;;;;;;;;;;5020570;28;20630;-88
2021/11/26 22:10:03;;;;;;;15.93;10.53;;;;;;;;;;5033396;28;20740;-88
2021/11/26 22:13:07;;;;;;;15.87;9.90;;;;;;;;;;5033830;28;20547;-87
2021/11/26 22:16:11;;;;;;;16.13;9.37;;;;;;;;;;5022681;28;20547;-88
2021/11/26 22:19:16;;;;;;;16.40;9.80;;;;;;;;;;5021364;28;20551;-86
2021/11/26 22:22:20;;;;;;;17.90;10.03;;;;;;;;;;5022247;28;20543;-86
2021/11/26 22:25:25;;;;;;;14.67;10.10;;;;;;;;;;5022465;28;20901;-87
2021/11/26 22:28:29;;;;;;;18.77;11.07;;;;;;;;;;5039798;28;20626;-87
2021/11/26 22:31:33;;;;;;;16.47;9.97;;;;;;;;;;5025149;28;20548;-88
2021/11/26 22:34:38;;;;;;;17.43;10.73;;;;;;;;;;5024428;28;20551;-87
2021/11/26 22:37:42;;;;;;;17.97;10.13;;;;;;;;;;5024638;28;20627;-87
2021/11/26 22:40:47;;;;;;;20.20;10.47;;;;;;;;;;5024145;28;20984;-87
2021/11/26 22:43:54;;;;;;;16.50;10.30;;;;;;;;;;5055632;28;20539;-87
2021/11/26 22:46:58;;;;;;;18.73;11.30;;;;;;;;;;5023025;28;20626;-87
2021/11/26 22:50:06;;;;;;;18.43;10.23;;;;;;;;;;5020520;28;20598;-87
2021/11/26 22:53:10;;;;;;;17.50;10.67;;;;;;;;;;5021165;28;20873;-86
2021/11/26 22:56:15;;;;;;;17.10;9.23;;;;;;;;;;5023129;28;20609;-87
2021/11/26 22:59:20;;;;;;;17.37;10.07;;;;;;;;;;5034135;28;20606;-87
2021/11/26 23:02:27;;;;;;;19.77;11.03;;;;;;;;;;5022559;28;20607;-86
2021/11/26 23:05:32;;;;;;;17.97;10.57;;;;;;;;;;5033303;28;20535;-87
2021/11/26 23:08:38;;;;;;;16.23;10.03;;;;;;;;;;5033642;28;20630;-88
2021/11/26 23:11:46;;;;;;;14.57;9.70;;;;;;;;;;5033154;28;20540;-86
2021/11/26 23:14:50;;;;;;;16.90;9.47;;;;;;;;;;5022174;28;20550;-86
2021/11/26 23:17:56;;;;;;;17.37;9.13;;;;;;;;;;5020658;28;20634;-87
2021/11/26 23:21:04;;;;;;;16.47;9.23;;;;;;;;;;5032111;28;20591;-87
2021/11/26 23:24:10;;;;;;;13.30;9.03;;;;;;;;;;5020930;28;20556;-87
2021/11/26 23:27:14;;;;;;;15.30;8.70;;;;;;;;;;5030207;28;20622;-87
2021/11/26 23:30:20;;;;;;;16.33;8.90;;;;;;;;;;5019694;28;20539;-87
2021/11/26 23:33:26;;;;;;;13.77;8.47;;;;;;;;;;5032073;28;20555;-87
2021/11/26 23:36:32;;;;;;;14.23;8.33;;;;;;;;;;5032630;28;20546;-86
2021/11/26 23:39:37;;;;;;;14.43;8.47;;;;;;;;;;5019371;28;20884;-87
2021/11/26 23:42:40;;;;;;;11.33;7.43;;;;;;;;;;5030591;28;20880;-87
2021/11/26 23:45:44;;;;;;;15.37;9.20;;;;;;;;;;5021815;28;20599;-86
2021/11/26 23:48:48;;;;;;;12.83;8.50;;;;;;;;;;5033618;28;20626;-86
2021/11/26 23:51:53;;;;;;;17.30;9.03;;;;;;;;;;5034335;28;20539;-86